Time;durP1;ratioP1;P1;durP2;ratioP2;P2;SDS_P1;SDS_P2;PMS_P1;PMS_P2;Temp;Humidity;BMP_temperature;BMP_pressure;BME280_temperature;BME280_humidity;BME280_pressure;Samples;Min_cycle;Max_cycle;Signal;HPM_P1;HPM_P2
2021/06/20 00:00:30;;;;;;;18.60;7.85;;;;;;;14.75;87.39;94659.50;1588365;89;21000;-57
2021/06/20 00:02:57;;;;;;;15.90;8.55;;;;;;;14.75;87.88;94667.81;1582889;89;21200;-57
2021/06/20 00:05:46;;;;;;;18.87;8.68;;;;;;;14.78;87.69;94664.12;1589785;89;21008;-57
2021/06/20 00:08:13;;;;;;;16.67;8.75;;;;;;;14.77;87.75;94673.03;1592147;89;21252;-58
2021/06/20 00:10:40;;;;;;;18.67;10.40;;;;;;;14.72;87.46;94672.31;1587412;89;21620;-57
2021/06/20 00:13:07;;;;;;;15.98;10.23;;;;;;;14.66;87.33;94670.05;1592861;89;21453;-57
2021/06/20 00:15:37;;;;;;;16.67;10.30;;;;;;;14.63;87.31;94675.16;1588001;89;21472;-57
2021/06/20 00:18:05;;;;;;;14.58;10.03;;;;;;;14.58;87.40;94666.73;1591798;89;20997;-57
2021/06/20 00:20:36;;;;;;;20.12;9.15;;;;;;;14.53;87.73;94671.55;1531780;93;21151;-57
2021/06/20 00:23:03;;;;;;;19.80;10.65;;;;;;;14.50;88.24;94666.97;1559323;91;20995;-57
2021/06/20 00:25:30;;;;;;;21.10;11.38;;;;;;;14.53;88.76;94668.78;1559337;92;21062;-57
2021/06/20 00:27:57;;;;;;;17.82;11.20;;;;;;;14.54;89.09;94670.31;1559331;92;21024;-57
2021/06/20 00:30:27;;;;;;;16.25;10.13;;;;;;;14.56;89.41;94665.06;1559695;92;21006;-57
2021/06/20 00:32:54;;;;;;;19.00;10.08;;;;;;;14.57;89.52;94654.91;1559441;92;21142;-57
2021/06/20 00:35:21;;;;;;;14.07;9.23;;;;;;;14.58;89.27;94661.98;1559291;92;21003;-57
2021/06/20 00:37:48;;;;;;;12.60;9.00;;;;;;;14.57;89.33;94664.60;1559524;92;21020;-57
2021/06/20 00:40:16;;;;;;;16.32;9.93;;;;;;;14.57;89.21;94658.28;1560801;92;21048;-57
2021/06/20 00:42:43;;;;;;;12.37;8.88;;;;;;;14.53;89.00;94652.95;1559564;92;21054;-57
2021/06/20 00:45:11;;;;;;;13.90;9.35;;;;;;;14.47;88.78;94658.98;1559343;92;21814;-57
2021/06/20 00:47:38;;;;;;;16.52;9.45;;;;;;;14.42;88.96;94664.44;1559257;92;21071;-57
2021/06/20 00:50:06;;;;;;;19.55;9.28;;;;;;;14.40;88.97;94668.27;1559272;92;21015;-57
2021/06/20 00:52:34;;;;;;;14.47;10.48;;;;;;;14.37;89.07;94661.55;1590642;88;21135;-57
2021/06/20 00:55:02;;;;;;;13.18;10.40;;;;;;;14.32;88.97;94663.59;1606525;89;21096;-56
2021/06/20 00:57:29;;;;;;;15.45;10.38;;;;;;;14.24;89.02;94652.12;1596200;88;21160;-57
2021/06/20 00:59:56;;;;;;;16.60;9.95;;;;;;;14.17;88.94;94648.30;1584996;88;20998;-56
2021/06/20 01:02:22;;;;;;;11.68;7.87;;;;;;;14.11;89.09;94643.86;1572714;89;21053;-57
2021/06/20 01:04:50;;;;;;;11.50;8.85;;;;;;;14.06;89.19;94637.00;1600586;89;21575;-57
2021/06/20 01:07:20;;;;;;;10.58;7.78;;;;;;;14.00;89.30;94635.35;1592091;88;21002;-57
2021/06/20 01:09:47;;;;;;;16.32;8.53;;;;;;;13.98;89.36;94641.34;1598685;88;21126;-57
2021/06/20 01:12:15;;;;;;;11.25;9.05;;;;;;;13.89;89.16;94648.94;1593717;88;21028;-56
2021/06/20 01:14:43;;;;;;;15.00;10.25;;;;;;;13.78;89.32;94642.55;1599849;89;21047;-57
2021/06/20 01:17:10;;;;;;;13.83;9.50;;;;;;;13.75;89.68;94644.88;1569025;89;21060;-57
2021/06/20 01:19:39;;;;;;;14.33;9.80;;;;;;;13.77;90.14;94645.77;1585909;88;21033;-56
2021/06/20 01:22:28;;;;;;;13.25;9.20;;;;;;;13.79;90.17;94651.63;1602362;88;21172;-57
2021/06/20 01:24:57;;;;;;;11.90;8.53;;;;;;;13.82;90.05;94646.53;1560847;90;21061;-57
2021/06/20 01:27:26;;;;;;;10.50;8.43;;;;;;;13.88;89.92;94642.66;1580410;89;21079;-57
2021/06/20 01:29:53;;;;;;;13.85;9.00;;;;;;;13.90;89.73;94647.09;1584672;89;21052;-56
2021/06/20 01:32:19;;;;;;;13.55;9.60;;;;;;;13.94;89.66;94639.98;1600125;89;21142;-57
2021/06/20 01:34:46;;;;;;;10.98;8.95;;;;;;;13.95;89.41;94647.04;1599136;88;21195;-56
2021/06/20 01:37:17;;;;;;;10.90;8.43;;;;;;;13.96;89.23;94643.07;1586479;89;21090;-57
2021/06/20 01:39:44;;;;;;;14.05;9.25;;;;;;;13.94;89.31;94638.00;1596826;88;20996;-57
2021/06/20 01:42:14;;;;;;;15.18;9.88;;;;;;;13.98;89.24;94639.21;1592107;89;21163;-57
2021/06/20 01:44:59;;;;;;;11.40;9.48;;;;;;;13.99;89.13;94633.83;1567013;90;21552;-56
2021/06/20 01:47:28;;;;;;;12.47;9.53;;;;;;;13.99;89.31;94637.97;1589490;88;21210;-56
2021/06/20 01:49:58;;;;;;;20.17;9.53;;;;;;;14.02;89.23;94648.09;1591454;89;21164;-57
2021/06/20 01:52:26;;;;;;;14.13;10.13;;;;;;;14.05;89.21;94655.44;1590227;89;21227;-57
2021/06/20 01:54:54;;;;;;;13.48;9.68;;;;;;;14.08;89.26;94651.13;1588317;89;21001;-56
2021/06/20 01:57:26;;;;;;;11.75;9.45;;;;;;;14.09;89.11;94644.35;1585740;89;21040;-57
2021/06/20 01:59:55;;;;;;;10.50;8.33;;;;;;;14.09;89.06;94642.19;1593685;89;21232;-56
2021/06/20 02:02:22;;;;;;;10.75;8.40;;;;;;;14.07;88.96;94640.52;1593764;89;21101;-57
2021/06/20 02:04:54;;;;;;;14.28;9.13;;;;;;;14.05;88.83;94644.38;1590123;89;21060;-56
2021/06/20 02:07:25;;;;;;;10.20;7.83;;;;;;;14.00;89.00;94643.65;1569656;89;21566;-57
2021/06/20 02:09:52;;;;;;;9.00;7.42;;;;;;;13.96;89.04;94647.22;1555384;89;21040;-57
2021/06/20 02:12:23;;;;;;;10.43;7.28;;;;;;;13.92;89.06;94651.53;1592053;88;21780;-57
2021/06/20 02:14:50;;;;;;;8.78;6.55;;;;;;;13.89;88.98;94647.55;1593955;88;21076;-57
2021/06/20 02:17:30;;;;;;;9.80;6.85;;;;;;;13.89;88.98;94646.17;1589690;89;21175;-56
2021/06/20 02:20:00;;;;;;;8.80;6.70;;;;;;;13.89;89.00;94646.95;1588511;88;21113;-55
2021/06/20 02:22:29;;;;;;;6.67;5.92;;;;;;;13.90;88.99;94650.46;1586907;89;21109;-57
2021/06/20 02:24:56;;;;;;;8.28;6.35;;;;;;;13.92;88.73;94657.06;1602209;89;21183;-56
2021/06/20 02:27:23;;;;;;;12.20;6.37;;;;;;;13.87;88.50;94652.19;1599181;89;21037;-57
2021/06/20 02:29:53;;;;;;;12.47;6.28;;;;;;;13.86;88.53;94649.27;1590236;88;21075;-56
2021/06/20 02:32:21;;;;;;;8.50;6.53;;;;;;;13.90;88.71;94658.76;1593188;89;21098;-57
2021/06/20 02:34:48;;;;;;;10.58;6.62;;;;;;;13.96;88.60;94668.71;1594614;88;21005;-56
2021/06/20 02:37:15;;;;;;;9.65;6.05;;;;;;;14.02;88.18;94680.65;1588998;88;21233;-57
2021/06/20 02:39:42;;;;;;;8.10;6.08;;;;;;;14.06;87.81;94674.34;1596371;89;21001;-57
2021/06/20 02:42:11;;;;;;;15.58;7.22;;;;;;;14.11;87.50;94685.36;1589512;89;21107;-56
2021/06/20 02:44:39;;;;;;;11.95;7.45;;;;;;;14.05;87.09;94686.66;1571611;88;21090;-56
2021/06/20 02:47:06;;;;;;;13.55;8.18;;;;;;;14.00;87.31;94694.83;1594144;88;21997;-56
2021/06/20 02:49:35;;;;;;;15.72;7.90;;;;;;;13.96;87.44;94702.53;1587561;89;21955;-56
2021/06/20 02:52:04;;;;;;;12.03;7.12;;;;;;;13.94;87.66;94703.59;1591920;88;21617;-57
2021/06/20 02:54:31;;;;;;;8.15;6.00;;;;;;;13.98;87.56;94703.58;1606421;89;21060;-57
2021/06/20 02:56:58;;;;;;;13.48;6.85;;;;;;;13.97;87.57;94694.38;1595835;89;21129;-57
2021/06/20 02:59:25;;;;;;;12.47;7.80;;;;;;;13.98;88.09;94686.23;1589143;88;21087;-57
2021/06/20 03:01:52;;;;;;;19.12;8.08;;;;;;;13.98;87.93;94694.53;1605807;89;21789;-57
2021/06/20 03:04:19;;;;;;;15.20;6.62;;;;;;;13.96;88.24;94693.61;1558809;89;21064;-57
2021/06/20 03:06:46;;;;;;;7.97;5.53;;;;;;;14.02;88.61;94685.44;1601305;89;21084;-57
2021/06/20 03:09:15;;;;;;;10.93;6.80;;;;;;;14.11;88.58;94688.13;1568542;89;21046;-58
2021/06/20 03:11:42;;;;;;;18.52;8.38;;;;;;;14.17;88.51;94689.06;1598613;88;21622;-58
2021/06/20 03:14:15;;;;;;;18.25;10.78;;;;;;;14.23;88.32;94685.18;1600958;89;21099;-58
2021/06/20 03:16:44;;;;;;;18.92;11.18;;;;;;;14.23;88.03;94687.17;1591400;88;20985;-58
2021/06/20 03:19:12;;;;;;;20.10;10.60;;;;;;;14.23;87.88;94685.18;1597936;89;21100;-55
2021/06/20 03:21:39;;;;;;;14.00;9.70;;;;;;;14.24;87.52;94683.16;1586698;89;21035;-56
2021/06/20 03:24:07;;;;;;;17.40;9.88;;;;;;;14.25;87.24;94684.69;1587871;88;21081;-57
2021/06/20 03:26:34;;;;;;;13.15;9.08;;;;;;;14.24;87.15;94684.55;1586972;89;21155;-57
2021/06/20 03:29:01;;;;;;;14.65;9.45;;;;;;;14.23;87.35;94681.63;1571476;89;21123;-57
2021/06/20 03:31:27;;;;;;;12.68;9.20;;;;;;;14.25;87.27;94673.02;1608067;89;21003;-57
2021/06/20 03:33:57;;;;;;;10.20;8.38;;;;;;;14.30;86.91;94673.74;1603930;89;21469;-57
2021/06/20 03:36:27;;;;;;;19.20;10.08;;;;;;;14.33;86.73;94664.48;1603145;89;21488;-59
2021/06/20 03:38:54;;;;;;;12.10;8.58;;;;;;;14.35;86.39;94665.41;1567296;89;21819;-56
2021/06/20 03:41:22;;;;;;;11.03;8.55;;;;;;;14.33;86.19;94660.97;1595517;88;21534;-56
2021/06/20 03:43:48;;;;;;;12.93;8.05;;;;;;;14.31;86.34;94659.27;1586540;89;21100;-56
2021/06/20 03:46:18;;;;;;;12.82;8.35;;;;;;;14.32;86.20;94657.42;1567002;88;21460;-56
2021/06/20 03:48:46;;;;;;;10.63;7.67;;;;;;;14.32;86.19;94651.14;1566435;89;21500;-57
2021/06/20 03:51:13;;;;;;;10.25;6.78;;;;;;;14.35;86.32;94641.89;1588592;89;21553;-57
2021/06/20 03:53:40;;;;;;;7.87;6.80;;;;;;;14.41;86.50;94644.13;1588426;89;21092;-56
2021/06/20 03:56:07;;;;;;;10.40;7.53;;;;;;;14.53;86.45;94647.41;1572905;89;21131;-57
2021/06/20 03:58:34;;;;;;;10.88;6.97;;;;;;;14.65;86.17;94647.75;1591379;89;20997;-56
2021/06/20 04:01:01;;;;;;;12.43;6.83;;;;;;;14.70;85.93;94645.73;1592855;88;21001;-55
2021/06/20 04:03:28;;;;;;;7.80;6.67;;;;;;;14.78;85.89;94650.27;1557621;91;21166;-56
2021/06/20 04:05:55;;;;;;;11.15;6.65;;;;;;;14.83;85.83;94650.35;1588667;89;21638;-57
2021/06/20 04:08:22;;;;;;;8.33;6.33;;;;;;;14.88;85.75;94653.86;1588874;88;21628;-56
2021/06/20 04:10:49;;;;;;;10.30;7.10;;;;;;;14.93;85.48;94651.02;1593711;89;21202;-57
2021/06/20 04:13:16;;;;;;;9.63;5.72;;;;;;;14.91;85.71;94651.52;1590427;89;22182;-57
2021/06/20 04:15:43;;;;;;;8.15;5.90;;;;;;;14.99;85.89;94647.11;1579440;89;21849;-57
2021/06/20 04:18:10;;;;;;;8.15;6.67;;;;;;;15.07;85.31;94642.73;1587383;89;21104;-57
2021/06/20 04:20:37;;;;;;;13.95;8.13;;;;;;;15.12;84.95;94643.44;1572283;90;21465;-58
2021/06/20 04:23:03;;;;;;;10.70;7.22;;;;;;;15.12;84.76;94635.73;1572715;89;21575;-57
2021/06/20 04:25:30;;;;;;;13.00;7.70;;;;;;;15.12;84.51;94637.12;1591584;89;21085;-56
2021/06/20 04:27:57;;;;;;;10.75;6.00;;;;;;;15.13;84.37;94631.72;1568056;89;21143;-57
2021/06/20 04:30:24;;;;;;;7.78;5.95;;;;;;;15.16;84.40;94627.37;1588507;90;21005;-56
2021/06/20 04:32:51;;;;;;;7.78;5.30;;;;;;;15.22;84.40;94612.23;1566019;89;21138;-56
2021/06/20 04:35:19;;;;;;;7.15;4.78;;;;;;;15.24;84.27;94607.75;1597082;89;21199;-56
2021/06/20 04:37:47;;;;;;;5.12;4.37;;;;;;;15.24;84.31;94600.04;1579770;89;20997;-57
2021/06/20 04:40:18;;;;;;;10.18;4.17;;;;;;;15.26;84.43;94603.87;1590788;89;22018;-57
2021/06/20 04:42:46;;;;;;;7.17;4.45;;;;;;;15.29;84.04;94598.78;1589182;88;21541;-57
2021/06/20 04:45:14;;;;;;;7.35;4.35;;;;;;;15.30;83.91;94601.69;1588525;90;21056;-57
2021/06/20 04:47:42;;;;;;;6.87;5.70;;;;;;;15.34;83.71;94599.47;1588735;90;21045;-57
2021/06/20 04:50:11;;;;;;;5.72;4.60;;;;;;;15.42;83.79;94590.14;1590053;89;21021;-56
2021/06/20 04:52:42;;;;;;;6.95;4.92;;;;;;;15.48;83.15;94586.82;1590147;89;21800;-57
2021/06/20 04:55:11;;;;;;;4.70;4.22;;;;;;;15.53;83.26;94578.59;1591236;89;21120;-56
2021/06/20 04:57:40;;;;;;;8.45;4.80;;;;;;;15.59;83.21;94565.58;1590753;88;21518;-57
2021/06/20 05:00:11;;;;;;;9.20;5.30;;;;;;;15.66;82.94;94559.62;1590829;89;21214;-56
2021/06/20 05:02:37;;;;;;;6.47;5.10;;;;;;;15.71;82.72;94551.98;1590002;89;21466;-57
2021/06/20 05:05:06;;;;;;;11.20;4.67;;;;;;;15.80;82.61;94547.70;1588670;90;21153;-57
2021/06/20 05:07:33;;;;;;;9.40;5.20;;;;;;;15.86;82.55;94552.69;1590779;89;21004;-57
2021/06/20 05:10:00;;;;;;;7.20;5.65;;;;;;;15.96;82.44;94554.09;1591381;88;21598;-57
2021/06/20 05:12:27;;;;;;;5.33;4.83;;;;;;;16.07;82.41;94555.59;1591535;89;21048;-57
2021/06/20 05:14:54;;;;;;;5.58;5.08;;;;;;;16.20;82.07;94551.84;1589739;89;20993;-57
2021/06/20 05:17:22;;;;;;;5.37;4.15;;;;;;;16.32;81.93;94554.86;1588399;90;22201;-57
2021/06/20 05:19:48;;;;;;;8.53;4.42;;;;;;;16.44;81.63;94555.93;1586517;88;20985;-58
2021/06/20 05:22:15;;;;;;;4.47;3.80;;;;;;;16.56;81.17;94556.80;1566344;89;21127;-57
2021/06/20 05:24:42;;;;;;;10.85;4.05;;;;;;;16.62;80.72;94543.11;1595100;89;21023;-58
2021/06/20 05:27:10;;;;;;;9.10;3.90;;;;;;;16.71;80.26;94543.56;1610008;89;21633;-56
2021/06/20 05:29:37;;;;;;;4.33;2.90;;;;;;;16.74;79.85;94547.50;1591354;89;21120;-57
2021/06/20 05:32:05;;;;;;;3.80;3.25;;;;;;;16.73;79.37;94542.45;1592624;88;21001;-57
2021/06/20 05:34:32;;;;;;;5.78;3.80;;;;;;;16.73;79.22;94539.67;1599700;89;21053;-58
2021/06/20 05:36:59;;;;;;;11.12;4.05;;;;;;;16.73;79.24;94541.80;1588888;88;21048;-57
2021/06/20 05:39:26;;;;;;;18.23;4.97;;;;;;;16.83;79.41;94550.73;1602228;88;21496;-56
2021/06/20 05:41:53;;;;;;;7.85;3.98;;;;;;;16.91;79.35;94552.58;1598838;89;21157;-57
2021/06/20 05:44:20;;;;;;;5.62;3.95;;;;;;;17.02;79.17;94556.08;1589440;88;21096;-57
2021/06/20 05:46:47;;;;;;;7.60;3.83;;;;;;;17.11;78.98;94549.70;1598951;88;21048;-57
2021/06/20 05:49:14;;;;;;;11.15;3.95;;;;;;;17.27;78.60;94555.28;1589359;88;20996;-57
2021/06/20 05:51:40;;;;;;;8.43;3.95;;;;;;;17.38;78.18;94548.42;1597093;88;21108;-58
2021/06/20 05:54:08;;;;;;;7.05;4.08;;;;;;;17.50;77.95;94543.81;1600203;89;21169;-58
2021/06/20 05:56:35;;;;;;;8.40;3.95;;;;;;;17.60;77.29;94546.55;1590350;89;20998;-58
2021/06/20 05:59:03;;;;;;;4.70;4.30;;;;;;;17.68;76.77;94539.89;1588740;89;21081;-58
2021/06/20 06:01:30;;;;;;;5.67;5.00;;;;;;;17.76;76.22;94540.93;1589079;88;21118;-57
2021/06/20 06:03:57;;;;;;;8.78;4.85;;;;;;;17.88;76.00;94541.13;1591630;89;21018;-57
2021/06/20 06:06:24;;;;;;;8.93;4.55;;;;;;;18.03;75.69;94537.53;1608304;89;21512;-57
2021/06/20 06:08:52;;;;;;;7.55;4.55;;;;;;;18.13;75.12;94548.70;1589605;89;21126;-58
2021/06/20 06:11:19;;;;;;;5.28;4.33;;;;;;;18.22;74.67;94549.89;1595918;89;21746;-57
2021/06/20 06:13:46;;;;;;;4.85;4.35;;;;;;;18.33;74.14;94547.18;1591893;89;21119;-57
2021/06/20 06:16:13;;;;;;;5.78;4.33;;;;;;;18.40;73.26;94550.09;1600532;89;21117;-57
2021/06/20 06:18:39;;;;;;;18.00;7.25;;;;;;;18.40;73.12;94555.05;1588762;88;21213;-57
2021/06/20 06:21:06;;;;;;;10.08;5.65;;;;;;;18.44;73.35;94554.16;1590349;89;21045;-57
2021/06/20 06:23:33;;;;;;;7.40;4.70;;;;;;;18.50;73.84;94559.75;1589082;88;21087;-58
2021/06/20 06:25:59;;;;;;;5.35;3.83;;;;;;;18.50;74.11;94550.75;1582395;89;21044;-58
2021/06/20 06:28:26;;;;;;;3.92;3.52;;;;;;;18.49;74.16;94542.91;1589218;89;21094;-57
2021/06/20 06:30:55;;;;;;;3.75;3.45;;;;;;;18.52;74.14;94536.33;1587906;88;40071;-59
2021/06/20 06:33:22;;;;;;;6.97;3.95;;;;;;;18.62;73.85;94532.05;1594856;88;21123;-56
2021/06/20 06:35:49;;;;;;;7.10;3.95;;;;;;;18.74;73.65;94520.41;1599963;89;21041;-58
2021/06/20 06:38:15;;;;;;;4.40;4.00;;;;;;;18.85;73.87;94520.41;1587897;87;21732;-58
2021/06/20 06:40:42;;;;;;;4.20;3.80;;;;;;;18.95;73.61;94524.48;1595716;88;21068;-58
2021/06/20 06:43:09;;;;;;;6.47;3.85;;;;;;;19.05;73.01;94522.95;1598185;89;21155;-58
2021/06/20 06:45:36;;;;;;;12.18;4.10;;;;;;;19.13;72.60;94525.98;1598304;89;21030;-57
2021/06/20 06:48:05;;;;;;;4.05;3.65;;;;;;;19.23;72.40;94519.67;1567871;88;21276;-58
2021/06/20 06:50:32;;;;;;;3.87;3.45;;;;;;;19.33;71.98;94519.55;1599531;89;21248;-57
2021/06/20 06:52:59;;;;;;;3.52;3.17;;;;;;;19.46;71.71;94521.81;1605302;88;21012;-57
2021/06/20 06:55:26;;;;;;;5.15;3.90;;;;;;;19.57;71.09;94514.17;1587480;88;21172;-57
2021/06/20 06:57:53;;;;;;;4.10;3.42;;;;;;;19.73;70.74;94518.96;1591740;89;20997;-58
2021/06/20 07:00:21;;;;;;;5.58;3.30;;;;;;;19.86;70.75;94519.19;1584986;88;21568;-58
2021/06/20 07:02:47;;;;;;;16.27;5.85;;;;;;;19.92;69.94;94514.98;1591950;89;21045;-58
2021/06/20 07:05:15;;;;;;;6.92;3.10;;;;;;;19.91;69.07;94530.22;1588451;89;20982;-58
2021/06/20 07:07:42;;;;;;;5.25;3.85;;;;;;;19.84;68.81;94531.51;1596818;89;21156;-57
2021/06/20 07:10:10;;;;;;;10.50;5.40;;;;;;;19.80;68.70;94523.27;1588771;89;21591;-57
2021/06/20 07:12:37;;;;;;;9.70;4.15;;;;;;;19.80;68.76;94525.44;1591826;88;21044;-57
2021/06/20 07:15:07;;;;;;;7.00;4.28;;;;;;;19.83;68.93;94529.98;1588164;89;21104;-58
2021/06/20 07:17:35;;;;;;;8.53;3.83;;;;;;;19.94;68.54;94531.98;1587361;89;21582;-57
2021/06/20 07:20:04;;;;;;;8.73;3.30;;;;;;;20.08;68.27;94535.15;1592360;89;21151;-57
2021/06/20 07:22:31;;;;;;;10.82;6.00;;;;;;;20.16;67.24;94522.28;1590232;89;21025;-58
2021/06/20 07:24:59;;;;;;;4.53;3.67;;;;;;;20.20;66.82;94515.77;1598686;89;21007;-58
2021/06/20 07:27:26;;;;;;;6.40;4.15;;;;;;;20.18;66.88;94509.20;1596455;88;21548;-58
2021/06/20 07:29:52;;;;;;;6.55;4.28;;;;;;;20.18;67.16;94510.59;1589214;89;21094;-58
2021/06/20 07:32:19;;;;;;;8.75;5.28;;;;;;;20.20;67.25;94506.65;1597533;89;21648;-57
2021/06/20 07:34:46;;;;;;;6.30;3.85;;;;;;;20.24;66.90;94501.55;1545384;91;21614;-57
2021/06/20 07:37:13;;;;;;;7.35;3.92;;;;;;;20.26;67.11;94495.58;1594599;89;21172;-58
2021/06/20 07:39:39;;;;;;;5.03;3.22;;;;;;;20.33;67.80;94499.83;1523829;92;21108;-61
2021/06/20 07:42:06;;;;;;;6.15;4.22;;;;;;;20.45;67.39;94495.71;1585988;89;21005;-57
2021/06/20 07:44:33;;;;;;;6.45;3.75;;;;;;;20.54;67.10;94497.56;1589694;89;21174;-60
2021/06/20 07:47:00;;;;;;;3.90;3.52;;;;;;;20.56;66.60;94501.25;1593706;89;21131;-58
2021/06/20 07:49:26;;;;;;;16.40;10.25;;;;;;;20.56;66.75;94501.25;1595566;88;21068;-57
2021/06/20 07:51:53;;;;;;;6.25;4.60;;;;;;;20.53;66.67;94493.25;1588834;89;21592;-60
2021/06/20 07:54:20;;;;;;;4.10;3.70;;;;;;;20.52;66.65;94489.59;1589479;89;21179;-58
2021/06/20 07:56:47;;;;;;;5.78;4.28;;;;;;;20.53;66.81;94484.86;1591208;89;21151;-58
2021/06/20 07:59:14;;;;;;;6.10;3.85;;;;;;;20.48;67.17;94479.30;1589540;89;21124;-59
2021/06/20 08:01:41;;;;;;;5.80;3.60;;;;;;;20.48;67.38;94470.92;1594592;89;21675;-59
2021/06/20 08:04:08;;;;;;;14.45;4.70;;;;;;;20.56;67.71;94470.50;1593198;89;21330;-58
2021/06/20 08:06:35;;;;;;;8.48;3.90;;;;;;;20.64;67.83;94477.05;1595483;88;21012;-58
2021/06/20 08:09:03;;;;;;;6.17;3.83;;;;;;;20.69;67.99;94477.01;1594114;89;21180;-57
2021/06/20 08:11:32;;;;;;;5.60;4.15;;;;;;;20.71;68.14;94470.91;1587606;88;21092;-57
2021/06/20 08:14:00;;;;;;;6.92;4.10;;;;;;;20.70;68.14;94469.39;1594705;89;21127;-58
2021/06/20 08:16:27;;;;;;;7.33;3.77;;;;;;;20.72;67.90;94461.24;1594365;89;21020;-58
2021/06/20 08:18:56;;;;;;;12.65;4.00;;;;;;;20.74;67.52;94454.48;1598518;89;21631;-56
2021/06/20 08:21:23;;;;;;;7.72;4.10;;;;;;;20.75;67.55;94451.81;1596090;88;21162;-58
2021/06/20 08:23:50;;;;;;;10.15;4.15;;;;;;;20.79;67.65;94443.27;1548521;91;21794;-59
2021/06/20 08:26:17;;;;;;;4.78;3.80;;;;;;;20.86;68.00;94441.32;1564468;89;21545;-57
2021/06/20 08:28:44;;;;;;;8.68;4.60;;;;;;;20.90;68.84;94444.59;1556673;91;21058;-59
2021/06/20 08:31:11;;;;;;;14.23;4.65;;;;;;;20.89;68.08;94447.27;1556720;92;21062;-57
2021/06/20 08:33:37;;;;;;;8.33;4.30;;;;;;;20.87;67.86;94446.26;1556737;92;21512;-58
2021/06/20 08:36:06;;;;;;;10.10;4.53;;;;;;;20.87;68.86;94454.65;1555064;92;21559;-58
2021/06/20 08:38:34;;;;;;;6.78;4.72;;;;;;;20.81;69.24;94470.70;1552844;92;21562;-58
2021/06/20 08:41:03;;;;;;;8.75;4.78;;;;;;;20.73;69.82;94466.30;1552869;92;21100;-58
2021/06/20 08:43:30;;;;;;;12.40;5.45;;;;;;;20.62;71.70;94483.80;1552890;92;21019;-58
2021/06/20 08:45:58;;;;;;;6.80;4.87;;;;;;;20.42;72.93;94500.32;1532854;92;21470;-58
2021/06/20 08:48:25;;;;;;;8.05;5.00;;;;;;;20.14;74.16;94487.11;1552812;92;21088;-58
2021/06/20 08:50:52;;;;;;;9.78;4.72;;;;;;;19.87;75.76;94483.02;1552778;92;21523;-58
2021/06/20 08:53:20;;;;;;;7.67;4.40;;;;;;;19.64;76.98;94498.32;1552801;92;21150;-58
2021/06/20 08:55:48;;;;;;;6.72;4.47;;;;;;;19.45;78.18;94491.77;1552946;92;21042;-58
2021/06/20 08:58:27;;;;;;;5.80;4.70;;;;;;;19.30;79.75;94505.23;1552833;92;21840;-57
2021/06/20 09:00:56;;;;;;;6.03;4.87;;;;;;;19.16;80.54;94497.88;1532815;92;21059;-60
2021/06/20 09:03:24;;;;;;;8.83;6.53;;;;;;;19.11;81.21;94506.99;1552932;90;21111;-58
2021/06/20 09:06:06;;;;;;;6.97;4.95;;;;;;;19.16;81.85;94497.88;1532768;92;21079;-58
2021/06/20 09:08:33;;;;;;;6.08;4.95;;;;;;;19.31;82.62;94503.96;1552549;92;21179;-57
2021/06/20 09:11:01;;;;;;;7.40;5.25;;;;;;;19.45;82.83;94505.72;1553030;92;21183;-57
2021/06/20 09:13:36;;;;;;;6.45;5.20;;;;;;;19.52;82.68;94501.00;1552760;90;21109;-59
2021/06/20 09:16:06;;;;;;;5.22;4.72;;;;;;;19.59;83.09;94497.67;1552911;92;21107;-57
2021/06/20 09:18:35;;;;;;;5.10;4.53;;;;;;;19.73;82.74;94504.27;1552971;92;21058;-58
2021/06/20 09:21:10;;;;;;;4.62;4.22;;;;;;;19.92;81.96;94495.44;1553343;92;21527;-59
2021/06/20 09:23:41;;;;;;;5.30;4.80;;;;;;;20.07;81.70;94491.08;1553084;92;21177;-57
2021/06/20 09:26:09;;;;;;;5.95;5.35;;;;;;;20.13;81.47;94484.20;1552807;92;21011;-59
2021/06/20 09:28:36;;;;;;;6.47;5.35;;;;;;;20.17;81.75;94476.95;1552915;92;21124;-59
2021/06/20 09:31:05;;;;;;;6.00;5.08;;;;;;;20.21;81.31;94471.84;1552949;92;21079;-58
2021/06/20 09:33:35;;;;;;;6.00;5.40;;;;;;;20.25;80.98;94473.10;1552889;92;21071;-58
2021/06/20 09:36:03;;;;;;;10.65;6.03;;;;;;;20.28;80.34;94473.46;1553072;92;21948;-58
2021/06/20 09:38:39;;;;;;;7.50;6.80;;;;;;;20.27;80.30;94475.36;1552840;92;21562;-57
2021/06/20 09:41:12;;;;;;;6.45;5.65;;;;;;;20.24;80.88;94477.80;1553187;92;21252;-58
2021/06/20 09:43:44;;;;;;;6.08;5.47;;;;;;;20.20;80.85;94476.66;1552896;92;21085;-59
2021/06/20 09:46:11;;;;;;;7.87;4.85;;;;;;;20.11;81.15;94474.06;1550091;91;21098;-57
2021/06/20 09:48:40;;;;;;;5.90;4.80;;;;;;;20.04;81.52;94476.75;1552761;92;22108;-57
2021/06/20 09:51:20;;;;;;;6.60;5.97;;;;;;;19.94;81.98;94472.69;1552785;92;21524;-58
2021/06/20 09:53:48;;;;;;;6.50;5.90;;;;;;;19.85;82.39;94477.19;1552832;92;21515;-57
2021/06/20 09:56:21;;;;;;;6.17;5.55;;;;;;;19.78;83.06;94479.75;1553143;92;21664;-59
2021/06/20 09:58:59;;;;;;;4.80;4.40;;;;;;;19.74;83.45;94481.40;1553176;92;26975;-58
2021/06/20 10:01:27;;;;;;;4.83;4.12;;;;;;;19.70;83.56;94486.49;1552848;92;21248;-58
2021/06/20 10:03:55;;;;;;;7.00;5.08;;;;;;;19.60;83.43;94476.13;1552713;92;21074;-58
2021/06/20 10:06:22;;;;;;;7.72;5.37;;;;;;;19.54;83.87;94477.52;1553289;92;21507;-57
2021/06/20 10:08:50;;;;;;;7.70;6.85;;;;;;;19.54;84.40;94478.18;1552823;92;21020;-58
2021/06/20 10:11:17;;;;;;;9.85;8.03;;;;;;;19.55;84.38;94475.51;1553142;92;20991;-58
2021/06/20 10:13:45;;;;;;;7.67;6.53;;;;;;;19.55;84.59;94476.25;1552948;90;21796;-58
2021/06/20 10:16:24;;;;;;;7.42;6.40;;;;;;;19.62;84.73;94478.53;1552938;92;21055;-58
2021/06/20 10:19:04;;;;;;;7.28;6.47;;;;;;;19.69;85.21;94488.39;1532761;92;21078;-58
2021/06/20 10:21:41;;;;;;;9.48;8.00;;;;;;;19.72;85.78;94488.13;1552829;92;21555;-57
2021/06/20 10:24:19;;;;;;;12.28;9.08;;;;;;;19.73;86.03;94486.86;1552847;92;21514;-57
2021/06/20 10:27:03;;;;;;;11.30;9.35;;;;;;;19.74;86.15;94489.77;1552950;92;21142;-57
2021/06/20 10:29:36;;;;;;;8.83;8.03;;;;;;;19.76;86.02;94479.50;1553071;92;21090;-57
2021/06/20 10:32:17;;;;;;;10.10;8.40;;;;;;;19.80;85.85;94483.55;1553547;92;21095;-57
2021/06/20 10:34:57;;;;;;;11.60;8.70;;;;;;;19.83;84.82;94467.17;1551217;92;21038;-57
2021/06/20 10:37:27;;;;;;;17.82;11.10;;;;;;;19.83;84.78;94453.20;1552813;92;21071;-57
2021/06/20 10:39:56;;;;;;;9.85;8.95;;;;;;;19.77;85.01;94449.66;1552842;92;21056;-58
2021/06/20 10:42:38;;;;;;;11.40;8.93;;;;;;;19.74;84.97;94451.34;1552791;92;21062;-58
2021/06/20 10:45:09;;;;;;;8.53;7.60;;;;;;;19.71;85.44;94447.53;1552968;92;21059;-58
2021/06/20 10:47:41;;;;;;;9.63;8.63;;;;;;;19.78;85.73;94455.36;1553035;92;21503;-59
2021/06/20 10:50:10;;;;;;;;;;;;;;;19.83;85.80;94450.41;1554849;92;21047;-59
2021/06/20 10:52:38;;;;;;;11.70;10.32;;;;;;;19.85;85.74;94442.91;1553012;92;21148;-58
2021/06/20 10:55:15;;;;;;;13.25;9.43;;;;;;;19.85;86.00;94435.30;1552841;92;20999;-58
2021/06/20 10:57:55;;;;;;;11.70;8.90;;;;;;;19.94;86.31;94439.83;1552812;92;21507;-58
2021/06/20 11:00:34;;;;;;;9.38;8.45;;;;;;;20.07;85.91;94431.68;1552755;92;21151;-59
2021/06/20 11:03:27;;;;;;;8.40;7.60;;;;;;;20.18;85.74;94429.59;1552667;92;21444;-58
2021/06/20 11:06:11;;;;;;;8.48;7.62;;;;;;;20.32;85.83;94424.27;1552937;92;21803;-59
2021/06/20 11:08:54;;;;;;;8.08;6.83;;;;;;;20.45;85.46;94409.07;1553087;92;21455;-57
2021/06/20 11:11:33;;;;;;;7.15;6.45;;;;;;;20.55;84.30;94403.30;1552934;92;21082;-58
2021/06/20 11:14:08;;;;;;;13.55;7.20;;;;;;;20.74;83.76;94406.30;1552790;92;21546;-58
2021/06/20 11:16:41;;;;;;;8.60;7.70;;;;;;;20.97;83.06;94405.50;1552563;92;21090;-57
2021/06/20 11:19:24;;;;;;;9.10;6.40;;;;;;;21.25;82.15;94403.95;1575234;90;21194;-57
2021/06/20 11:21:56;;;;;;;7.55;6.12;;;;;;;21.47;81.04;94398.77;1588812;88;21173;-56
2021/06/20 11:24:31;;;;;;;10.78;7.12;;;;;;;21.70;79.44;94382.63;1586554;88;21128;-58
2021/06/20 11:27:12;;;;;;;6.92;5.12;;;;;;;22.00;78.93;94386.69;1598174;88;21060;-57
2021/06/20 11:29:49;;;;;;;6.60;5.58;;;;;;;22.41;76.10;94380.25;1606892;88;21043;-57
2021/06/20 11:32:20;;;;;;;5.85;5.33;;;;;;;22.75;74.46;94377.67;1601093;88;21830;-57
2021/06/20 11:34:55;;;;;;;6.83;4.78;;;;;;;22.83;72.46;94368.09;1596735;89;21004;-57
2021/06/20 11:37:25;;;;;;;4.80;4.37;;;;;;;22.77;72.45;94362.45;1578188;89;21053;-57